createdAt,value
2023-09-13T00:00:48.946Z,10.25
2023-09-13T00:03:21.648Z,10.22
2023-09-13T00:05:54.577Z,10.20
2023-09-13T00:08:27.701Z,10.17
2023-09-13T00:11:06.330Z,10.16
2023-09-13T00:13:39.179Z,9.99
2023-09-13T00:16:13.203Z,10.01
2023-09-13T00:18:46.498Z,10.02
2023-09-13T00:21:19.958Z,10.07
2023-09-13T00:23:52.557Z,10.04
2023-09-13T00:26:27.195Z,10.02
2023-09-13T00:29:00.531Z,10.02
2023-09-13T00:31:34.039Z,10.00
2023-09-13T00:34:08.812Z,9.96
2023-09-13T00:36:41.962Z,9.98
2023-09-13T00:39:15.038Z,9.88
2023-09-13T00:41:49.810Z,9.95
2023-09-13T00:44:22.677Z,9.94
2023-09-13T00:46:56.509Z,9.93
2023-09-13T00:49:29.684Z,9.90
2023-09-13T00:52:03.353Z,9.87
2023-09-13T00:54:36.817Z,9.73
2023-09-13T00:57:12.644Z,9.70
2023-09-13T00:59:45.921Z,9.78
2023-09-13T01:02:19.354Z,9.73
2023-09-13T01:04:52.431Z,9.70
2023-09-13T01:07:25.755Z,9.59
2023-09-13T01:09:58.393Z,9.70
2023-09-13T01:12:33.214Z,9.69
2023-09-13T01:15:08.429Z,9.68
2023-09-13T01:17:49.844Z,9.48
2023-09-13T01:20:40.441Z,9.65
2023-09-13T01:23:33.497Z,9.52
2023-09-13T01:26:40.694Z,9.34
2023-09-13T01:29:18.134Z,9.58
2023-09-13T01:31:51.257Z,9.56
2023-09-13T01:34:24.599Z,9.49
2023-09-13T01:36:57.952Z,9.48
2023-09-13T01:39:31.236Z,9.48
2023-09-13T01:42:06.798Z,9.46
2023-09-13T01:44:43.959Z,9.45
2023-09-13T01:47:19.088Z,9.39
2023-09-13T01:49:53.181Z,9.40
2023-09-13T01:52:26.643Z,9.35
2023-09-13T01:54:59.489Z,9.38
2023-09-13T01:57:32.690Z,9.38
2023-09-13T02:00:08.135Z,9.13
2023-09-13T02:02:48.437Z,9.31
2023-09-13T02:05:21.829Z,9.29
2023-09-13T02:07:54.529Z,9.33
2023-09-13T02:10:27.672Z,9.32
2023-09-13T02:13:01.899Z,9.30
2023-09-13T02:15:41.931Z,9.29
2023-09-13T02:18:14.943Z,9.26
2023-09-13T02:20:47.971Z,9.24
2023-09-13T02:23:21.003Z,9.21
2023-09-13T02:25:56.291Z,9.20
2023-09-13T02:28:29.196Z,9.13
2023-09-13T02:31:05.065Z,9.18
2023-09-13T02:33:37.988Z,9.18
2023-09-13T02:36:11.241Z,8.85
2023-09-13T02:38:45.884Z,9.16
2023-09-13T02:41:19.289Z,9.11
2023-09-13T02:43:52.275Z,9.11
2023-09-13T02:46:27.593Z,9.16
2023-09-13T02:49:00.305Z,9.15
2023-09-13T02:51:33.597Z,9.09
2023-09-13T02:54:06.591Z,9.07
2023-09-13T02:56:40.075Z,9.13
2023-09-13T02:59:12.755Z,9.10
2023-09-13T03:01:47.389Z,9.05
2023-09-13T03:04:20.600Z,9.02
2023-09-13T03:06:56.144Z,8.97
2023-09-13T03:09:28.864Z,8.85
2023-09-13T03:12:02.989Z,9.02
2023-09-13T03:14:35.685Z,9.01
2023-09-13T03:17:13.741Z,8.96
2023-09-13T03:19:46.385Z,9.01
2023-09-13T03:22:21.202Z,9.03
2023-09-13T03:24:54.398Z,9.01
2023-09-13T03:27:27.602Z,8.99
2023-09-13T03:30:01.302Z,8.99
2023-09-13T03:32:39.869Z,8.97
2023-09-13T03:35:12.620Z,8.94
2023-09-13T03:37:45.872Z,8.92
2023-09-13T03:40:18.741Z,8.91
2023-09-13T03:42:52.335Z,8.90
2023-09-13T03:45:25.666Z,8.91
2023-09-13T03:48:00.257Z,8.90
2023-09-13T03:50:33.635Z,8.88
2023-09-13T03:53:07.071Z,8.94
2023-09-13T03:55:40.123Z,8.96
2023-09-13T03:58:13.538Z,8.97
2023-09-13T04:00:46.728Z,8.99
2023-09-13T04:03:22.242Z,8.93
2023-09-13T04:05:55.360Z,9.00
2023-09-13T04:08:30.089Z,8.99
2023-09-13T04:11:03.518Z,9.10
2023-09-13T04:13:37.936Z,9.12
2023-09-13T04:16:14.737Z,9.12
2023-09-13T04:18:49.507Z,9.13
2023-09-13T04:21:23.501Z,9.23
2023-09-13T04:23:59.985Z,9.19
2023-09-13T04:26:33.640Z,9.29
2023-09-13T04:29:07.930Z,9.19
2023-09-13T04:31:40.598Z,9.41
2023-09-13T04:34:16.073Z,9.34
2023-09-13T04:36:49.305Z,9.50
2023-09-13T04:39:22.690Z,9.57
2023-09-13T04:41:55.845Z,9.63
2023-09-13T04:44:28.544Z,9.71
2023-09-13T04:47:02.492Z,9.93
2023-09-13T04:49:37.701Z,10.28
2023-09-13T04:52:12.260Z,10.52
2023-09-13T04:54:45.502Z,11.04
2023-09-13T04:57:18.504Z,11.41
2023-09-13T04:59:51.167Z,11.78
2023-09-13T05:02:24.375Z,12.14
2023-09-13T05:04:58.562Z,12.48
2023-09-13T05:07:31.626Z,12.77
2023-09-13T05:10:05.731Z,13.10
2023-09-13T05:12:39.098Z,13.25
2023-09-13T05:15:12.012Z,13.48
2023-09-13T05:17:44.730Z,13.66
2023-09-13T05:20:19.198Z,13.61
2023-09-13T05:22:52.114Z,13.69
2023-09-13T05:25:28.172Z,13.58
2023-09-13T05:28:01.507Z,13.47
2023-09-13T05:30:35.612Z,13.30
2023-09-13T05:33:08.633Z,13.22
2023-09-13T05:35:43.374Z,13.19
2023-09-13T05:38:16.016Z,13.14
2023-09-13T05:40:49.010Z,13.11
2023-09-13T05:43:21.609Z,13.12
2023-09-13T05:45:54.787Z,13.13
2023-09-13T05:48:27.466Z,13.17
2023-09-13T05:51:01.977Z,13.17
2023-09-13T05:53:34.898Z,13.24
2023-09-13T05:56:11.818Z,13.24
2023-09-13T05:58:44.915Z,13.38
2023-09-13T06:01:41.189Z,13.38
2023-09-13T06:04:17.730Z,13.51
2023-09-13T06:06:52.234Z,13.46
2023-09-13T06:09:27.760Z,13.65
2023-09-13T06:12:07.618Z,13.74
2023-09-13T06:14:48.577Z,13.81
2023-09-13T06:17:24.001Z,13.98
2023-09-13T06:19:57.435Z,14.15
2023-09-13T06:22:41.331Z,14.23
2023-09-13T06:25:15.851Z,14.52
2023-09-13T06:27:48.889Z,14.72
2023-09-13T06:30:22.259Z,14.88
2023-09-13T06:33:10.378Z,14.98
2023-09-13T06:35:45.490Z,15.20
2023-09-13T06:38:20.985Z,15.21
2023-09-13T06:40:54.144Z,15.43
2023-09-13T06:43:32.800Z,15.51
2023-09-13T06:46:08.849Z,15.56
2023-09-13T06:48:43.574Z,15.58
2023-09-13T06:53:55.075Z,15.65
2023-09-13T06:56:30.358Z,15.66
2023-09-13T06:59:06.793Z,15.58
2023-09-13T07:02:05.935Z,15.59
2023-09-13T07:04:41.186Z,15.70
2023-09-13T07:07:14.575Z,15.74
2023-09-13T07:09:49.478Z,15.78
2023-09-13T07:12:27.322Z,15.79
2023-09-13T07:15:03.169Z,15.82
2023-09-13T07:17:38.151Z,15.85
2023-09-13T07:20:12.435Z,15.89
2023-09-13T07:22:45.800Z,15.92
2023-09-13T07:25:20.381Z,15.94
2023-09-13T07:27:53.792Z,15.94
2023-09-13T07:30:26.345Z,16.05
2023-09-13T07:33:00.082Z,16.08
2023-09-13T07:35:32.756Z,16.08
2023-09-13T07:38:06.130Z,16.15
2023-09-13T07:40:40.959Z,16.11
2023-09-13T07:43:17.776Z,16.24
2023-09-13T07:45:50.865Z,16.20
2023-09-13T07:48:24.777Z,16.29
2023-09-13T07:50:57.992Z,16.32
2023-09-13T07:53:30.682Z,16.16
2023-09-13T07:56:05.826Z,16.36
2023-09-13T07:58:38.515Z,16.31
2023-09-13T08:01:12.071Z,16.39
2023-09-13T08:03:44.924Z,16.42
2023-09-13T08:06:18.626Z,16.44
2023-09-13T08:08:52.136Z,16.38
2023-09-13T08:11:26.275Z,16.46
2023-09-13T08:13:59.285Z,16.45
2023-09-13T08:16:32.914Z,16.50
2023-09-13T08:19:05.627Z,16.49
2023-09-13T08:21:39.329Z,16.54
2023-09-13T08:24:12.233Z,16.57
2023-09-13T08:26:47.120Z,16.60
2023-09-13T08:29:20.134Z,16.60
2023-09-13T08:31:52.824Z,16.66
2023-09-13T08:34:25.849Z,16.71
2023-09-13T08:36:59.142Z,16.65
2023-09-13T08:39:33.527Z,16.83
2023-09-13T08:42:07.802Z,16.88
2023-09-13T08:44:42.172Z,16.96
2023-09-13T08:47:16.204Z,17.03
2023-09-13T08:49:50.955Z,17.08
2023-09-13T08:52:25.986Z,17.10
2023-09-13T08:55:00.191Z,17.09
2023-09-13T08:57:35.715Z,17.16
2023-09-13T09:00:09.906Z,17.18
2023-09-13T09:02:43.728Z,17.17
2023-09-13T09:05:17.856Z,17.21
2023-09-13T09:07:50.775Z,17.24
2023-09-13T09:10:24.694Z,17.27
2023-09-13T09:13:01.148Z,17.26
2023-09-13T09:15:36.839Z,17.24
2023-09-13T09:18:11.560Z,17.23
2023-09-13T09:20:46.198Z,17.23
2023-09-13T09:23:20.445Z,17.20
2023-09-13T09:25:55.180Z,17.19
2023-09-13T09:28:29.695Z,17.21
2023-09-13T09:31:07.150Z,17.20
2023-09-13T09:33:40.715Z,17.22
2023-09-13T09:36:18.258Z,17.23
2023-09-13T09:38:55.455Z,17.17
2023-09-13T09:41:32.938Z,17.17
2023-09-13T09:44:07.972Z,17.16
2023-09-13T09:46:41.310Z,17.18
2023-09-13T09:49:15.192Z,17.16
2023-09-13T09:51:48.522Z,17.14
2023-09-13T09:54:21.524Z,17.12
2023-09-13T09:56:54.569Z,17.12
2023-09-13T09:59:30.517Z,17.13
2023-09-13T10:02:05.158Z,17.11
2023-09-13T10:04:47.069Z,16.66
2023-09-13T10:07:21.020Z,17.11
2023-09-13T10:09:55.855Z,17.09
2023-09-13T10:12:28.377Z,17.08
2023-09-13T10:15:05.508Z,17.03
2023-09-13T10:17:40.661Z,17.02
2023-09-13T10:20:16.363Z,17.04
2023-09-13T10:22:51.115Z,17.04
2023-09-13T10:25:25.449Z,17.05
2023-09-13T10:28:01.263Z,17.08
2023-09-13T10:30:37.536Z,17.09
2023-09-13T10:33:14.949Z,17.18
2023-09-13T10:35:52.201Z,17.26
2023-09-13T10:38:39.010Z,17.35
2023-09-13T10:41:18.514Z,17.42
2023-09-13T10:43:52.767Z,17.49
2023-09-13T10:46:27.835Z,17.43
2023-09-13T10:49:03.016Z,17.55
2023-09-13T10:51:38.156Z,17.59
2023-09-13T10:54:15.529Z,17.59
2023-09-13T10:56:50.162Z,17.58
2023-09-13T10:59:25.253Z,17.60
2023-09-13T11:02:09.398Z,17.55
2023-09-13T11:04:45.936Z,17.58
2023-09-13T11:07:18.814Z,17.63
2023-09-13T11:10:03.950Z,17.64
2023-09-13T11:12:37.598Z,17.66
2023-09-13T11:15:22.728Z,17.65
2023-09-13T11:17:58.369Z,17.66
2023-09-13T11:20:41.804Z,17.72
2023-09-13T11:23:33.334Z,17.74
2023-09-13T11:26:15.837Z,17.70
2023-09-13T11:28:59.269Z,17.81
2023-09-13T11:32:01.283Z,17.85
2023-09-13T11:34:42.659Z,17.83
2023-09-13T11:37:17.562Z,17.90
2023-09-13T11:39:54.480Z,17.94
2023-09-13T11:42:35.424Z,17.98
2023-09-13T11:45:28.528Z,17.99
2023-09-13T11:48:06.287Z,18.03
2023-09-13T11:50:48.731Z,17.95
2023-09-13T11:53:27.453Z,18.07
2023-09-13T11:58:48.193Z,18.11
2023-09-13T12:01:35.644Z,18.02
2023-09-13T12:06:52.507Z,18.13
2023-09-13T12:09:29.943Z,18.13
2023-09-13T12:12:07.111Z,18.15
2023-09-13T12:17:20.754Z,18.17
2023-09-13T12:19:57.392Z,18.14
2023-09-13T12:22:31.725Z,18.17
2023-09-13T12:25:10.007Z,18.17
2023-09-13T12:27:46.975Z,18.19
2023-09-13T12:30:20.181Z,18.18
2023-09-13T12:32:52.879Z,18.18
2023-09-13T12:35:28.948Z,18.17
2023-09-13T12:38:03.960Z,18.19
2023-09-13T12:40:37.078Z,18.24
2023-09-13T12:43:10.033Z,18.26
2023-09-13T12:45:43.894Z,18.28
2023-09-13T12:48:16.975Z,18.27
2023-09-13T12:50:51.053Z,18.32
2023-09-13T12:53:28.941Z,18.33
2023-09-13T12:56:03.223Z,18.33
2023-09-13T12:58:47.363Z,18.32
2023-09-13T13:01:20.929Z,18.25
2023-09-13T13:04:01.035Z,18.25
2023-09-13T13:06:38.914Z,18.18
2023-09-13T13:09:13.847Z,18.08
2023-09-13T13:11:46.668Z,18.20
2023-09-13T13:14:23.125Z,18.21
2023-09-13T13:16:57.577Z,18.14
2023-09-13T13:19:50.599Z,18.28
2023-09-13T13:22:26.505Z,18.29
2023-09-13T13:25:01.193Z,18.37
2023-09-13T13:27:36.449Z,18.33
2023-09-13T13:30:10.608Z,18.41
2023-09-13T13:32:43.566Z,18.48
2023-09-13T13:35:19.964Z,18.36
2023-09-13T13:37:52.948Z,18.49
2023-09-13T13:40:27.680Z,18.53
2023-09-13T13:43:00.328Z,18.53
2023-09-13T13:45:35.912Z,18.54
2023-09-13T13:48:08.932Z,18.54
2023-09-13T13:50:41.777Z,18.53
2023-09-13T13:53:14.777Z,18.53
2023-09-13T13:55:49.447Z,18.50
2023-09-13T13:58:22.132Z,18.50
2023-09-13T14:00:55.747Z,18.49
2023-09-13T14:03:28.913Z,18.43
2023-09-13T14:06:04.922Z,18.49
2023-09-13T14:08:37.889Z,18.48
2023-09-13T14:11:11.904Z,18.46
2023-09-13T14:13:45.118Z,18.43
2023-09-13T14:16:18.304Z,18.36
2023-09-13T14:18:59.452Z,18.40
2023-09-13T14:21:41.666Z,18.38
2023-09-13T14:24:14.953Z,18.38
2023-09-13T14:26:51.759Z,18.39
2023-09-13T14:29:24.817Z,18.40
2023-09-13T14:32:01.955Z,18.40
2023-09-13T14:34:40.757Z,18.29
2023-09-13T14:37:15.371Z,18.42
2023-09-13T14:39:48.858Z,18.38
2023-09-13T14:42:22.978Z,18.40
2023-09-13T14:44:55.990Z,18.36
2023-09-13T14:47:28.764Z,18.39
2023-09-13T14:50:02.351Z,18.38
2023-09-13T14:52:39.794Z,18.36
2023-09-13T14:55:13.371Z,18.34
2023-09-13T14:57:47.405Z,18.33
2023-09-13T15:00:21.415Z,18.30
2023-09-13T15:02:54.325Z,18.24
2023-09-13T15:05:27.771Z,18.21
2023-09-13T15:08:00.471Z,18.17
2023-09-13T15:10:33.683Z,18.13
2023-09-13T15:13:07.851Z,17.94
2023-09-13T15:15:44.390Z,18.08
2023-09-13T15:18:17.581Z,18.03
2023-09-13T15:20:50.508Z,17.86
2023-09-13T15:23:23.157Z,17.90
2023-09-13T15:25:56.357Z,17.89
2023-09-13T15:28:31.171Z,17.84
2023-09-13T15:31:06.022Z,17.80
2023-09-13T15:33:40.104Z,17.75
2023-09-13T15:36:13.508Z,17.70
2023-09-13T15:38:58.740Z,17.65
2023-09-13T15:41:33.558Z,17.61
2023-09-13T15:44:07.606Z,17.51
2023-09-13T15:46:40.488Z,17.50
2023-09-13T15:49:13.498Z,17.39
2023-09-13T15:51:46.465Z,17.40
2023-09-13T15:54:19.902Z,17.34
2023-09-13T15:56:57.530Z,17.19
2023-09-13T15:59:33.776Z,17.02
2023-09-13T16:02:06.837Z,17.15
2023-09-13T16:04:41.005Z,17.13
2023-09-13T16:07:14.821Z,17.04
2023-09-13T16:09:50.287Z,17.00
2023-09-13T16:12:23.853Z,16.94
2023-09-13T16:14:58.495Z,16.82
2023-09-13T16:17:31.082Z,16.74
2023-09-13T16:20:04.813Z,16.58
2023-09-13T16:22:38.007Z,16.45
2023-09-13T16:25:11.450Z,16.61
2023-09-13T16:27:44.489Z,16.56
2023-09-13T16:30:19.123Z,16.47
2023-09-13T16:32:58.711Z,16.42
2023-09-13T16:35:32.076Z,16.33
2023-09-13T16:38:05.306Z,16.26
2023-09-13T16:40:38.592Z,16.07
2023-09-13T16:43:11.609Z,15.94
2023-09-13T16:45:47.525Z,16.08
2023-09-13T16:48:33.835Z,16.03
2023-09-13T16:51:08.494Z,15.83
2023-09-13T16:53:41.667Z,15.86
2023-09-13T16:56:14.945Z,15.75
2023-09-13T16:58:47.841Z,15.79
2023-09-13T17:01:22.570Z,15.63
2023-09-13T17:03:55.357Z,15.68
2023-09-13T17:06:28.570Z,15.61
2023-09-13T17:09:02.440Z,15.56
2023-09-13T17:11:35.262Z,15.49
2023-09-13T17:14:09.249Z,15.42
2023-09-13T17:16:44.119Z,15.36
2023-09-13T17:19:19.006Z,15.06
2023-09-13T17:21:51.999Z,15.25
2023-09-13T17:24:28.325Z,15.20
2023-09-13T17:27:09.541Z,15.13
2023-09-13T17:29:43.900Z,15.06
2023-09-13T17:32:19.473Z,15.01
2023-09-13T17:34:52.356Z,14.95
2023-09-13T17:37:29.799Z,14.90
2023-09-13T17:40:03.128Z,14.84
2023-09-13T17:42:36.093Z,14.78
2023-09-13T17:45:09.688Z,14.62
2023-09-13T17:47:43.978Z,14.68
2023-09-13T17:50:16.981Z,14.62
2023-09-13T17:52:49.938Z,14.57
2023-09-13T17:55:23.525Z,14.53
2023-09-13T17:57:58.380Z,14.48
2023-09-13T18:00:31.690Z,14.43
2023-09-13T18:03:06.390Z,14.38
2023-09-13T18:05:45.668Z,14.33
2023-09-13T18:08:18.291Z,14.23
2023-09-13T18:10:51.226Z,14.21
2023-09-13T18:13:24.551Z,14.07
2023-09-13T18:15:59.450Z,13.96
2023-09-13T18:18:34.534Z,14.07
2023-09-13T18:21:08.432Z,14.02
2023-09-13T18:23:42.138Z,13.98
2023-09-13T18:26:18.677Z,13.84
2023-09-13T18:28:52.998Z,13.91
2023-09-13T18:31:26.882Z,13.89
2023-09-13T18:34:02.621Z,13.84
2023-09-13T18:36:35.826Z,13.72
2023-09-13T18:42:08.890Z,13.71
2023-09-13T18:44:41.488Z,13.75
2023-09-13T18:47:14.745Z,13.67
2023-09-13T18:49:48.855Z,13.67
2023-09-13T18:52:25.542Z,13.58
2023-09-13T18:54:58.501Z,13.56
2023-09-13T18:57:33.614Z,13.45
2023-09-13T19:00:10.349Z,13.38
2023-09-13T19:02:43.660Z,13.45
2023-09-13T19:05:17.855Z,13.30
2023-09-13T19:07:50.988Z,13.34
2023-09-13T19:10:24.458Z,13.38
2023-09-13T19:12:57.517Z,13.41
2023-09-13T19:15:30.513Z,13.38
2023-09-13T19:18:04.036Z,13.36
2023-09-13T19:20:38.472Z,13.32
2023-09-13T19:23:13.103Z,13.28
2023-09-13T19:25:48.514Z,13.16
2023-09-13T19:28:24.373Z,13.22
2023-09-13T19:30:59.648Z,13.20
2023-09-13T19:33:33.856Z,13.17
2023-09-13T19:36:10.539Z,13.14
2023-09-13T19:38:43.518Z,13.11
2023-09-13T19:41:18.831Z,13.08
2023-09-13T19:43:52.230Z,13.03
2023-09-13T19:46:31.170Z,12.87
2023-09-13T19:49:04.091Z,12.98
2023-09-13T19:51:46.785Z,12.89
2023-09-13T19:54:19.666Z,12.90
2023-09-13T19:56:53.075Z,12.81
2023-09-13T19:59:38.033Z,12.87
2023-09-13T20:02:11.114Z,12.80
2023-09-13T20:04:43.794Z,12.79
2023-09-13T20:07:18.135Z,12.80
2023-09-13T20:09:50.869Z,12.72
2023-09-13T20:12:24.228Z,12.74
2023-09-13T20:14:57.255Z,12.70
2023-09-13T20:17:30.401Z,12.58
2023-09-13T20:20:03.554Z,12.52
2023-09-13T20:22:40.603Z,12.62
2023-09-13T20:25:16.032Z,12.51
2023-09-13T20:27:49.245Z,12.57
2023-09-13T20:30:21.877Z,12.54
2023-09-13T20:32:54.922Z,12.52
2023-09-13T20:35:27.552Z,12.50
2023-09-13T20:38:02.154Z,12.38
2023-09-13T20:40:34.892Z,12.32
2023-09-13T20:43:08.510Z,12.35
2023-09-13T20:45:41.117Z,12.36
2023-09-13T20:48:14.499Z,12.32
2023-09-13T20:50:51.601Z,12.29
2023-09-13T20:53:25.777Z,12.26
2023-09-13T20:55:59.012Z,12.20
2023-09-13T20:58:31.583Z,12.23
2023-09-13T21:01:05.041Z,12.14
2023-09-13T21:03:38.115Z,12.12
2023-09-13T21:06:12.910Z,12.13
2023-09-13T21:08:47.113Z,12.10
2023-09-13T21:11:20.615Z,11.99
2023-09-13T21:13:53.262Z,12.03
2023-09-13T21:16:26.608Z,11.96
2023-09-13T21:18:59.655Z,11.97
2023-09-13T21:21:33.113Z,11.94
2023-09-13T21:24:07.462Z,11.79
2023-09-13T21:26:41.482Z,11.89
2023-09-13T21:29:14.360Z,11.82
2023-09-13T21:31:47.775Z,11.77
2023-09-13T21:34:20.857Z,11.81
2023-09-13T21:36:53.752Z,11.79
2023-09-13T21:39:28.193Z,11.77
2023-09-13T21:42:00.873Z,11.75
2023-09-13T21:44:34.195Z,11.74
2023-09-13T21:47:07.357Z,11.73
2023-09-13T21:49:40.026Z,11.70
2023-09-13T21:52:13.428Z,11.68
2023-09-13T21:54:50.054Z,11.67
2023-09-13T21:57:28.617Z,11.66
2023-09-13T22:00:01.668Z,11.61
2023-09-13T22:02:45.455Z,11.61
2023-09-13T22:05:23.706Z,11.55
2023-09-13T22:07:56.511Z,11.55
2023-09-13T22:10:31.312Z,11.51
2023-09-13T22:13:04.182Z,11.41
2023-09-13T22:15:37.161Z,11.52
2023-09-13T22:18:10.358Z,11.49
2023-09-13T22:20:43.283Z,11.52
2023-09-13T22:23:16.353Z,11.53
2023-09-13T22:25:50.858Z,11.51
2023-09-13T22:28:24.367Z,11.50
2023-09-13T22:31:01.570Z,11.48
2023-09-13T22:33:35.045Z,11.46
2023-09-13T22:36:11.438Z,11.46
2023-09-13T22:38:54.377Z,11.40
2023-09-13T22:41:38.830Z,11.43
2023-09-13T22:44:12.569Z,11.42
2023-09-13T22:46:47.037Z,11.40
2023-09-13T22:49:23.539Z,11.37
2023-09-13T22:51:57.562Z,11.30
2023-09-13T22:54:30.440Z,11.24
2023-09-13T22:57:05.270Z,11.26
2023-09-13T22:59:38.162Z,11.27
2023-09-13T23:02:11.570Z,11.25
2023-09-13T23:04:48.605Z,11.23
2023-09-13T23:07:21.868Z,11.18
2023-09-13T23:09:54.985Z,11.08
2023-09-13T23:12:29.234Z,11.15
2023-09-13T23:15:02.756Z,11.11
2023-09-13T23:17:38.260Z,11.07
2023-09-13T23:20:13.690Z,11.03
2023-09-13T23:22:52.717Z,11.01
2023-09-13T23:25:26.491Z,10.96
2023-09-13T23:28:00.788Z,10.97
2023-09-13T23:30:36.230Z,10.97
2023-09-13T23:33:10.824Z,10.95
2023-09-13T23:35:45.443Z,10.95
2023-09-13T23:38:18.742Z,10.94
2023-09-13T23:40:51.736Z,10.87
2023-09-13T23:43:25.996Z,10.88
2023-09-13T23:45:59.352Z,10.84
2023-09-13T23:48:32.199Z,10.82
2023-09-13T23:51:07.435Z,10.78
2023-09-13T23:53:40.713Z,10.76
2023-09-13T23:56:13.988Z,10.74
2023-09-13T23:58:48.628Z,10.73
